createdAt,value
2023-01-29T00:01:15.864Z,66.91
2023-01-29T00:04:19.736Z,66.38
2023-01-29T00:07:22.097Z,67.06
2023-01-29T00:10:26.051Z,66.52
2023-01-29T00:13:30.989Z,67.11
2023-01-29T00:16:33.657Z,66.56
2023-01-29T00:19:36.307Z,66.89
2023-01-29T00:22:38.960Z,66.90
2023-01-29T00:25:42.729Z,66.73
2023-01-29T00:28:47.257Z,66.52
2023-01-29T00:31:53.716Z,66.51
2023-01-29T00:34:57.988Z,67.12
2023-01-29T00:38:00.424Z,67.19
2023-01-29T00:41:29.601Z,67.14
2023-01-29T00:44:50.537Z,67.39
2023-01-29T00:47:53.159Z,66.99
2023-01-29T00:50:55.472Z,67.31
2023-01-29T00:53:58.422Z,66.92
2023-01-29T00:57:01.759Z,67.61
2023-01-29T01:00:07.713Z,67.29
2023-01-29T01:03:10.780Z,67.32
2023-01-29T01:06:15.944Z,67.96
2023-01-29T01:09:36.913Z,67.73
2023-01-29T01:12:40.127Z,68.05
2023-01-29T01:15:42.445Z,68.27
2023-01-29T01:18:45.324Z,68.53
2023-01-29T01:21:48.414Z,68.34
2023-01-29T01:24:51.044Z,68.49
2023-01-29T01:31:11.678Z,68.39
2023-01-29T01:34:14.101Z,68.54
2023-01-29T01:37:17.168Z,68.17
2023-01-29T01:40:28.674Z,68.14
2023-01-29T01:43:50.807Z,68.37
2023-01-29T01:46:55.661Z,68.28
2023-01-29T01:50:03.386Z,68.28
2023-01-29T01:53:54.894Z,68.34
2023-01-29T01:57:24.215Z,68.57
2023-01-29T02:00:27.120Z,68.80
2023-01-29T02:03:52.243Z,68.84
2023-01-29T02:07:15.057Z,68.81
2023-01-29T02:10:25.552Z,69.17
2023-01-29T02:13:31.153Z,69.25
2023-01-29T02:16:40.801Z,69.21
2023-01-29T02:20:26.411Z,69.35
2023-01-29T02:24:11.631Z,69.54
2023-01-29T02:27:20.019Z,69.27
2023-01-29T02:30:36.568Z,69.50
2023-01-29T02:34:01.048Z,69.58
2023-01-29T02:37:11.430Z,69.41
2023-01-29T02:40:38.488Z,69.65
2023-01-29T02:44:01.858Z,69.40
2023-01-29T02:47:42.096Z,69.66
2023-01-29T02:51:01.765Z,69.30
2023-01-29T02:54:17.008Z,69.61
2023-01-29T02:57:41.815Z,69.43
2023-01-29T03:04:34.159Z,69.21
2023-01-29T03:07:46.515Z,69.59
2023-01-29T03:10:59.689Z,69.46
2023-01-29T03:14:33.278Z,69.66
2023-01-29T03:17:56.875Z,69.95
2023-01-29T03:21:08.374Z,70.17
2023-01-29T03:24:33.378Z,70.07
2023-01-29T03:28:06.294Z,69.78
2023-01-29T03:31:36.686Z,69.95
2023-01-29T03:34:52.035Z,69.58
2023-01-29T03:37:59.536Z,69.71
2023-01-29T03:41:09.062Z,69.45
2023-01-29T03:44:21.822Z,69.67
2023-01-29T03:47:45.453Z,69.22
2023-01-29T03:51:04.608Z,69.48
2023-01-29T03:54:13.895Z,69.33
2023-01-29T03:57:30.575Z,69.49
2023-01-29T04:00:56.250Z,69.67
2023-01-29T04:04:17.241Z,69.43
2023-01-29T04:07:27.051Z,69.26
2023-01-29T04:10:35.802Z,69.09
2023-01-29T04:13:47.290Z,69.35
2023-01-29T04:17:03.019Z,69.05
2023-01-29T04:20:06.689Z,68.94
2023-01-29T04:23:23.328Z,68.44
2023-01-29T04:26:51.972Z,68.38
2023-01-29T04:30:07.286Z,68.50
2023-01-29T04:33:40.561Z,68.61
2023-01-29T04:36:58.175Z,68.61
2023-01-29T04:40:07.834Z,68.44
2023-01-29T04:43:21.165Z,68.38
2023-01-29T04:46:36.751Z,68.51
2023-01-29T04:49:42.089Z,68.59
2023-01-29T04:53:02.652Z,68.63
2023-01-29T04:56:21.189Z,68.03
2023-01-29T04:59:33.656Z,68.71
2023-01-29T05:02:39.694Z,68.24
2023-01-29T05:05:46.638Z,67.93
2023-01-29T05:08:51.228Z,67.98
2023-01-29T05:11:56.379Z,68.34
2023-01-29T05:15:05.308Z,67.30
2023-01-29T05:18:09.156Z,67.79
2023-01-29T05:21:11.988Z,67.59
2023-01-29T05:24:20.421Z,67.38
2023-01-29T05:27:50.090Z,67.08
2023-01-29T05:30:55.719Z,67.37
2023-01-29T05:33:58.439Z,67.14
2023-01-29T05:37:00.785Z,66.82
2023-01-29T05:40:03.644Z,67.28
2023-01-29T05:43:13.999Z,66.92
2023-01-29T05:46:16.672Z,67.12
2023-01-29T05:49:20.628Z,66.96
2023-01-29T05:52:23.228Z,66.64
2023-01-29T05:55:26.287Z,66.46
2023-01-29T05:58:31.309Z,67.04
2023-01-29T06:01:33.801Z,66.11
2023-01-29T06:04:36.582Z,65.90
2023-01-29T06:07:42.245Z,66.04
2023-01-29T06:10:46.151Z,65.85
2023-01-29T06:13:48.941Z,65.21
2023-01-29T06:16:51.631Z,65.06
2023-01-29T06:19:53.988Z,65.59
2023-01-29T06:22:56.668Z,65.22
2023-01-29T06:26:08.220Z,65.30
2023-01-29T06:29:10.841Z,65.76
2023-01-29T06:32:13.162Z,65.92
2023-01-29T06:35:15.896Z,66.33
2023-01-29T06:38:18.231Z,65.93
2023-01-29T06:41:25.732Z,65.90
2023-01-29T06:44:28.236Z,66.26
2023-01-29T06:47:31.103Z,66.20
2023-01-29T06:50:33.470Z,66.37
2023-01-29T06:53:37.724Z,66.82
2023-01-29T06:56:40.006Z,66.99
2023-01-29T06:59:42.909Z,66.86
2023-01-29T07:02:45.264Z,66.93
2023-01-29T07:05:52.928Z,67.04
2023-01-29T07:08:55.594Z,66.66
2023-01-29T07:12:37.143Z,66.43
2023-01-29T07:15:42.961Z,66.75
2023-01-29T07:18:48.132Z,66.54
2023-01-29T07:21:50.490Z,66.86
2023-01-29T07:24:53.112Z,66.60
2023-01-29T07:27:55.511Z,66.41
2023-01-29T07:31:00.768Z,66.23
2023-01-29T07:34:03.621Z,66.33
2023-01-29T07:37:06.393Z,66.73
2023-01-29T07:40:12.272Z,66.55
2023-01-29T07:43:15.040Z,66.46
2023-01-29T07:46:17.632Z,66.20
2023-01-29T07:49:20.427Z,65.99
2023-01-29T07:52:22.907Z,66.07
2023-01-29T07:55:25.747Z,65.77
2023-01-29T07:58:28.109Z,65.98
2023-01-29T08:01:30.801Z,65.93
2023-01-29T08:04:33.390Z,65.71
2023-01-29T08:07:35.710Z,65.72
2023-01-29T08:10:39.790Z,65.38
2023-01-29T08:13:42.168Z,65.67
2023-01-29T08:16:44.844Z,64.95
2023-01-29T08:19:47.280Z,65.10
2023-01-29T08:22:50.355Z,64.79
2023-01-29T08:25:52.823Z,64.48
2023-01-29T08:28:55.520Z,64.55
2023-01-29T08:31:57.869Z,64.81
2023-01-29T08:35:00.539Z,64.36
2023-01-29T08:38:05.161Z,64.43
2023-01-29T08:41:08.231Z,64.56
2023-01-29T08:44:11.055Z,63.70
2023-01-29T08:47:13.770Z,63.91
2023-01-29T08:50:17.665Z,64.11
2023-01-29T08:53:24.642Z,63.74
2023-01-29T08:56:26.995Z,64.17
2023-01-29T08:59:29.602Z,63.83
2023-01-29T09:02:32.686Z,63.91
2023-01-29T09:05:37.212Z,64.01
2023-01-29T09:08:40.170Z,64.16
2023-01-29T09:11:42.876Z,63.69
2023-01-29T09:14:45.212Z,63.63
2023-01-29T09:17:49.465Z,63.34
2023-01-29T09:20:53.499Z,63.48
2023-01-29T09:23:56.002Z,63.11
2023-01-29T09:26:58.584Z,63.03
2023-01-29T09:30:01.215Z,62.42
2023-01-29T09:33:07.446Z,63.05
2023-01-29T09:36:10.138Z,62.90
2023-01-29T09:39:12.437Z,63.18
2023-01-29T09:42:24.409Z,62.28
2023-01-29T09:45:28.422Z,62.83
2023-01-29T09:48:35.161Z,62.07
2023-01-29T09:51:43.384Z,61.77
2023-01-29T09:55:11.569Z,61.71
2023-01-29T09:58:19.297Z,62.07
2023-01-29T10:01:41.055Z,61.92
2023-01-29T10:04:57.763Z,61.38
2023-01-29T10:08:21.779Z,62.19
2023-01-29T10:11:46.296Z,61.03
2023-01-29T10:14:56.968Z,60.96
2023-01-29T10:18:05.644Z,60.69
2023-01-29T10:21:38.636Z,60.74
2023-01-29T10:24:41.180Z,60.40
2023-01-29T10:27:50.137Z,60.11
2023-01-29T10:31:00.155Z,59.78
2023-01-29T10:34:23.742Z,59.41
2023-01-29T10:37:45.021Z,59.63
2023-01-29T10:41:04.236Z,60.17
2023-01-29T10:44:54.545Z,59.55
2023-01-29T10:48:04.177Z,59.26
2023-01-29T10:51:19.210Z,59.71
2023-01-29T10:54:21.424Z,59.56
2023-01-29T10:57:39.314Z,58.91
2023-01-29T11:00:42.636Z,59.62
2023-01-29T11:03:45.594Z,59.12
2023-01-29T11:06:49.640Z,58.95
2023-01-29T11:10:02.892Z,59.34
2023-01-29T11:13:05.591Z,58.74
2023-01-29T11:16:09.359Z,58.33
2023-01-29T11:19:11.846Z,58.86
2023-01-29T11:22:17.405Z,58.81
2023-01-29T11:25:20.542Z,57.64
2023-01-29T11:28:47.022Z,57.61
2023-01-29T11:31:49.445Z,56.95
2023-01-29T11:35:01.169Z,56.87
2023-01-29T11:38:24.751Z,56.95
2023-01-29T11:41:27.637Z,57.22
2023-01-29T11:44:29.954Z,56.74
2023-01-29T11:47:33.067Z,56.57
2023-01-29T11:50:35.532Z,56.13
2023-01-29T11:53:45.097Z,56.32
2023-01-29T11:56:48.899Z,56.04
2023-01-29T11:59:53.662Z,55.89
2023-01-29T12:03:04.845Z,55.88
2023-01-29T12:06:17.895Z,55.07
2023-01-29T12:09:24.534Z,55.30
2023-01-29T12:12:30.601Z,55.26
2023-01-29T12:15:33.566Z,54.71
2023-01-29T12:18:41.598Z,55.16
2023-01-29T12:21:51.091Z,54.75
2023-01-29T12:25:03.935Z,54.71
2023-01-29T12:28:08.500Z,53.79
2023-01-29T12:31:18.068Z,53.87
2023-01-29T12:34:45.197Z,52.59
2023-01-29T12:38:20.156Z,53.54
2023-01-29T12:41:37.988Z,52.93
2023-01-29T12:44:49.724Z,52.16
2023-01-29T12:47:56.347Z,52.31
2023-01-29T12:51:07.683Z,51.27
2023-01-29T12:54:15.496Z,52.06
2023-01-29T12:57:48.634Z,51.80
2023-01-29T13:00:54.531Z,50.79
2023-01-29T13:04:10.122Z,51.22
2023-01-29T13:07:21.259Z,50.21
2023-01-29T13:10:30.216Z,50.06
2023-01-29T13:14:05.868Z,50.58
2023-01-29T13:17:27.959Z,47.54
2023-01-29T13:20:34.060Z,48.18
2023-01-29T13:23:40.660Z,46.68
2023-01-29T13:26:46.262Z,46.48
2023-01-29T13:29:49.092Z,44.45
2023-01-29T13:33:09.180Z,42.60
2023-01-29T13:36:22.089Z,40.63
2023-01-29T13:39:31.307Z,40.42
2023-01-29T13:42:46.024Z,40.51
2023-01-29T13:45:51.580Z,41.59
2023-01-29T13:48:58.220Z,42.30
2023-01-29T13:52:31.775Z,43.71
2023-01-29T13:55:41.040Z,44.55
2023-01-29T13:58:46.182Z,45.11
2023-01-29T14:01:48.797Z,45.88
2023-01-29T14:04:51.910Z,46.55
2023-01-29T14:07:54.294Z,47.30
2023-01-29T14:11:15.409Z,47.84
2023-01-29T14:14:49.123Z,48.47
2023-01-29T14:18:00.123Z,48.63
2023-01-29T14:21:16.745Z,48.93
2023-01-29T14:24:28.073Z,49.55
2023-01-29T14:27:31.509Z,50.04
2023-01-29T14:30:35.538Z,50.14
2023-01-29T14:33:43.449Z,50.72
2023-01-29T14:36:55.174Z,51.30
2023-01-29T14:40:19.088Z,51.41
2023-01-29T14:43:22.008Z,51.83
2023-01-29T14:46:36.098Z,52.26
2023-01-29T14:49:58.942Z,52.73
2023-01-29T14:53:23.286Z,52.71
2023-01-29T14:56:41.024Z,52.95
2023-01-29T15:00:05.280Z,53.40
2023-01-29T15:03:13.528Z,53.49
2023-01-29T15:06:20.180Z,53.69
2023-01-29T15:09:46.063Z,53.15
2023-01-29T15:12:56.757Z,53.96
2023-01-29T15:16:15.105Z,53.61
2023-01-29T15:19:32.156Z,53.46
2023-01-29T15:22:43.616Z,53.35
2023-01-29T15:25:52.562Z,53.80
2023-01-29T15:29:04.863Z,54.20
2023-01-29T15:32:08.258Z,54.04
2023-01-29T15:35:26.427Z,54.71
2023-01-29T15:38:29.676Z,55.11
2023-01-29T15:41:32.281Z,55.24
2023-01-29T15:44:34.813Z,55.58
2023-01-29T15:47:37.644Z,54.96
2023-01-29T15:50:41.818Z,55.38
2023-01-29T15:53:58.315Z,55.20
2023-01-29T15:57:02.529Z,55.73
2023-01-29T16:00:07.471Z,55.76
2023-01-29T16:03:16.624Z,56.07
2023-01-29T16:06:20.625Z,56.05
2023-01-29T16:09:26.073Z,55.87
2023-01-29T16:12:28.850Z,56.16
2023-01-29T16:15:35.029Z,56.28
2023-01-29T16:18:41.034Z,56.50
2023-01-29T16:22:01.932Z,56.53
2023-01-29T16:25:08.751Z,56.49
2023-01-29T16:28:11.341Z,56.76
2023-01-29T16:31:31.513Z,56.76
2023-01-29T16:34:39.809Z,56.67
2023-01-29T16:37:48.877Z,56.49
2023-01-29T16:41:30.932Z,57.36
2023-01-29T16:44:39.342Z,57.55
2023-01-29T16:47:41.724Z,57.65
2023-01-29T16:50:54.634Z,57.43
2023-01-29T16:53:57.509Z,57.55
2023-01-29T16:57:02.057Z,57.69
2023-01-29T17:00:08.250Z,57.37
2023-01-29T17:03:12.673Z,57.65
2023-01-29T17:06:24.680Z,57.99
2023-01-29T17:09:30.043Z,58.04
2023-01-29T17:12:33.677Z,57.75
2023-01-29T17:15:47.783Z,58.19
2023-01-29T17:18:50.433Z,57.77
2023-01-29T17:21:52.994Z,58.23
2023-01-29T17:24:55.514Z,58.20
2023-01-29T17:28:01.562Z,58.03
2023-01-29T17:31:06.692Z,57.60
2023-01-29T17:34:14.222Z,57.91
2023-01-29T17:37:17.074Z,57.83
2023-01-29T17:40:37.098Z,58.03
2023-01-29T17:43:39.471Z,57.83
2023-01-29T17:46:42.979Z,58.08
2023-01-29T17:49:45.389Z,58.34
2023-01-29T17:52:48.463Z,58.22
2023-01-29T17:55:51.432Z,58.37
2023-01-29T17:58:54.180Z,58.25
2023-01-29T18:01:56.770Z,58.89
2023-01-29T18:04:59.585Z,58.77
2023-01-29T18:08:02.437Z,58.94
2023-01-29T18:11:05.757Z,58.49
2023-01-29T18:14:12.059Z,59.02
2023-01-29T18:17:22.235Z,59.02
2023-01-29T18:20:27.503Z,58.60
2023-01-29T18:23:31.270Z,59.03
2023-01-29T18:26:33.840Z,58.96
2023-01-29T18:29:36.508Z,59.04
2023-01-29T18:32:39.210Z,58.97
2023-01-29T18:35:43.962Z,58.86
2023-01-29T18:38:46.261Z,58.97
2023-01-29T18:41:48.861Z,58.94
2023-01-29T18:44:51.313Z,58.93
2023-01-29T18:47:54.569Z,58.98
2023-01-29T18:50:57.248Z,59.10
2023-01-29T18:53:59.868Z,59.34
2023-01-29T18:57:13.370Z,58.70
2023-01-29T19:00:17.685Z,58.89
2023-01-29T19:03:20.156Z,58.99
2023-01-29T19:06:22.823Z,59.22
2023-01-29T19:09:25.144Z,59.10
2023-01-29T19:12:27.806Z,59.50
2023-01-29T19:15:30.178Z,59.40
2023-01-29T19:18:32.897Z,59.33
2023-01-29T19:21:36.805Z,58.88
2023-01-29T19:24:39.453Z,59.44
2023-01-29T19:27:41.768Z,59.01
2023-01-29T19:30:44.520Z,59.38
2023-01-29T19:33:46.903Z,59.40
2023-01-29T19:36:49.589Z,59.23
2023-01-29T19:39:52.111Z,59.28
2023-01-29T19:42:55.995Z,59.42
2023-01-29T19:46:01.913Z,59.60
2023-01-29T19:49:06.678Z,59.53
2023-01-29T19:52:14.975Z,59.36
2023-01-29T19:55:19.097Z,59.38
2023-01-29T19:58:23.869Z,59.72
2023-01-29T20:01:29.701Z,59.67
2023-01-29T20:04:32.520Z,59.41
2023-01-29T20:07:36.039Z,59.69
2023-01-29T20:10:39.010Z,59.84
2023-01-29T20:13:41.419Z,59.71
2023-01-29T20:16:43.991Z,59.85
2023-01-29T20:19:46.484Z,59.66
2023-01-29T20:22:49.085Z,59.78
2023-01-29T20:25:52.153Z,59.65
2023-01-29T20:28:54.723Z,59.64
2023-01-29T20:31:57.357Z,59.62
2023-01-29T20:35:00.143Z,60.17
2023-01-29T20:38:03.419Z,59.74
2023-01-29T20:41:16.945Z,59.78
2023-01-29T20:44:19.381Z,59.74
2023-01-29T20:47:22.065Z,59.83
2023-01-29T20:50:24.456Z,59.97
2023-01-29T20:53:27.025Z,60.10
2023-01-29T20:56:36.280Z,60.55
2023-01-29T20:59:47.212Z,60.34
2023-01-29T21:02:49.529Z,60.49
2023-01-29T21:05:52.398Z,60.49
2023-01-29T21:08:55.712Z,60.44
2023-01-29T21:11:58.331Z,60.49
2023-01-29T21:15:00.845Z,60.26
2023-01-29T21:18:06.039Z,60.44
2023-01-29T21:21:08.401Z,60.55
2023-01-29T21:24:11.830Z,60.17
2023-01-29T21:27:14.151Z,60.43
2023-01-29T21:30:18.219Z,60.68
2023-01-29T21:33:20.943Z,60.48
2023-01-29T21:36:23.594Z,60.55
2023-01-29T21:39:26.437Z,60.79
2023-01-29T21:42:48.085Z,60.59
2023-01-29T21:45:56.670Z,60.72
2023-01-29T21:48:59.297Z,60.72
2023-01-29T21:52:01.623Z,60.82
2023-01-29T21:55:05.460Z,60.96
2023-01-29T21:58:07.838Z,60.76
2023-01-29T22:01:36.499Z,60.61
2023-01-29T22:04:32.971Z,60.86
2023-01-29T22:07:35.286Z,60.86
2023-01-29T22:10:39.014Z,60.74
2023-01-29T22:13:41.458Z,60.94
2023-01-29T22:16:45.451Z,61.11
2023-01-29T22:19:48.295Z,61.04
2023-01-29T22:22:51.049Z,61.06
2023-01-29T22:25:53.699Z,60.80
2023-01-29T22:28:57.056Z,60.95
2023-01-29T22:31:59.513Z,61.08
2023-01-29T22:35:02.132Z,61.18
2023-01-29T22:38:04.993Z,61.11
2023-01-29T22:41:10.899Z,61.12
2023-01-29T22:44:13.172Z,61.18
2023-01-29T22:47:16.081Z,61.08
2023-01-29T22:50:18.648Z,60.99
2023-01-29T22:53:21.446Z,60.91
2023-01-29T22:56:29.548Z,61.19
2023-01-29T22:59:32.884Z,61.06
2023-01-29T23:02:35.263Z,60.59
2023-01-29T23:05:37.825Z,60.58
2023-01-29T23:08:40.203Z,60.51
2023-01-29T23:11:42.780Z,60.66
2023-01-29T23:14:45.179Z,60.79
2023-01-29T23:17:47.799Z,60.76
2023-01-29T23:20:56.676Z,60.79
2023-01-29T23:24:00.579Z,60.57
2023-01-29T23:27:15.206Z,60.62
2023-01-29T23:30:18.254Z,60.67
2023-01-29T23:33:21.024Z,60.54
2023-01-29T23:36:23.971Z,60.47
2023-01-29T23:39:26.391Z,60.49
2023-01-29T23:42:29.085Z,60.62
2023-01-29T23:45:31.471Z,60.63
2023-01-29T23:48:34.740Z,60.53
2023-01-29T23:51:37.119Z,60.53
2023-01-29T23:54:39.755Z,60.68
2023-01-29T23:57:42.111Z,60.42
